createdAt,value
2023-02-27T00:07:22.190Z,102374.13
2023-02-27T00:11:17.553Z,102377.92
2023-02-27T00:15:39.557Z,102386.27
2023-02-27T00:20:08.904Z,102396.30
2023-02-27T00:24:36.997Z,102404.84
2023-02-27T00:33:38.097Z,102396.64
2023-02-27T00:55:02.730Z,102391.54
2023-02-27T00:59:32.004Z,102400.62
2023-02-27T01:04:01.351Z,102403.45
2023-02-27T01:08:30.485Z,102404.02
2023-02-27T01:12:53.977Z,102405.90
2023-02-27T01:17:23.228Z,102408.16
2023-02-27T01:21:52.715Z,102403.66
2023-02-27T01:26:23.431Z,102403.09
2023-02-27T01:53:25.090Z,102413.48
2023-02-27T01:57:54.398Z,102408.32
2023-02-27T02:16:22.906Z,102414.03
2023-02-27T02:21:00.930Z,102413.85
2023-02-27T02:25:45.197Z,102417.20
2023-02-27T02:56:24.018Z,102430.73
2023-02-27T03:01:02.271Z,102440.39
2023-02-27T03:05:32.123Z,102443.88
2023-02-27T03:10:04.108Z,102449.08
2023-02-27T03:14:28.819Z,102463.84
2023-02-27T03:18:55.845Z,102468.35
2023-02-27T03:38:31.338Z,102471.26
2023-02-27T03:42:54.650Z,102471.96
2023-02-27T03:47:26.763Z,102474.14
2023-02-27T03:51:49.359Z,102476.39
2023-02-27T03:56:21.773Z,102479.36
2023-02-27T04:00:52.477Z,102486.21
2023-02-27T04:05:10.356Z,102488.13
2023-02-27T04:27:00.943Z,102511.70
2023-02-27T04:54:39.269Z,102507.13
2023-02-27T04:59:20.370Z,102501.51
2023-02-27T05:03:54.569Z,102500.71
2023-02-27T05:08:22.225Z,102512.55
2023-02-27T05:44:01.327Z,102560.20
2023-02-27T05:48:30.112Z,102562.09
2023-02-27T05:56:14.578Z,102573.05
2023-02-27T06:00:56.177Z,102580.77
2023-02-27T06:05:19.525Z,102584.20
2023-02-27T06:22:03.198Z,102596.89
2023-02-27T06:25:58.494Z,102588.52
2023-02-27T06:30:16.122Z,102585.88
2023-02-27T06:34:02.741Z,102588.11
2023-02-27T06:38:16.128Z,102591.23
2023-02-27T06:42:45.047Z,102605.23
2023-02-27T06:47:14.654Z,102614.27
2023-02-27T06:51:25.569Z,102620.38
2023-02-27T06:55:20.651Z,102622.21
2023-02-27T06:59:38.630Z,102630.48
2023-02-27T07:04:01.249Z,102635.77
2023-02-27T07:08:16.453Z,102641.85
2023-02-27T07:12:11.983Z,102639.29
2023-02-27T07:16:31.640Z,102644.12
2023-02-27T07:20:59.887Z,102654.27
2023-02-27T07:25:23.108Z,102658.29
2023-02-27T07:43:22.848Z,102673.41
2023-02-27T07:47:52.102Z,102674.20
2023-02-27T07:52:11.543Z,102678.60
2023-02-27T07:56:41.935Z,102683.66
2023-02-27T08:14:03.977Z,102679.32
2023-02-27T08:18:34.796Z,102682.91
2023-02-27T08:23:04.010Z,102682.54
2023-02-27T08:27:14.891Z,102691.48
2023-02-27T09:00:12.646Z,102701.63
2023-02-27T09:04:33.577Z,102701.85
2023-02-27T09:08:55.540Z,102704.03
2023-02-27T09:25:31.872Z,102716.10
2023-02-27T09:30:00.785Z,102716.87
2023-02-27T09:34:30.114Z,102715.02
2023-02-27T09:38:59.471Z,102714.29
2023-02-27T09:43:28.794Z,102717.67
2023-02-27T09:48:05.508Z,102721.54
2023-02-27T10:07:30.500Z,102718.73
2023-02-27T10:11:37.002Z,102718.21
2023-02-27T10:16:06.699Z,102722.79
2023-02-27T10:37:20.320Z,102720.95
2023-02-27T10:41:31.050Z,102721.52
2023-02-27T10:46:00.412Z,102728.36
2023-02-27T10:50:30.908Z,102727.34
2023-02-27T10:55:01.789Z,102729.80
2023-02-27T10:59:13.852Z,102733.13
2023-02-27T11:16:18.187Z,102731.10
2023-02-27T11:20:47.880Z,102733.80
2023-02-27T11:24:58.717Z,102741.39
2023-02-27T11:29:48.895Z,102740.85
2023-02-27T11:34:08.586Z,102742.25
2023-02-27T11:37:50.390Z,102744.37
2023-02-27T11:42:00.187Z,102740.50
2023-02-27T12:50:08.503Z,102735.98
2023-02-27T12:54:14.312Z,102737.20
2023-02-27T12:57:43.288Z,102731.45
2023-02-27T13:01:15.723Z,102733.27
2023-02-27T13:05:04.063Z,102724.62
2023-02-27T13:09:40.707Z,102732.30
2023-02-27T13:14:15.105Z,102730.69
2023-02-27T13:18:24.529Z,102734.48
2023-02-27T13:22:37.098Z,102729.60
2023-02-27T13:26:35.379Z,102729.13
2023-02-27T13:34:55.766Z,102727.70
2023-02-27T13:39:35.100Z,102732.34
2023-02-27T13:43:51.492Z,102722.69
2023-02-27T13:48:30.118Z,102718.40
2023-02-27T13:52:52.277Z,102721.17
2023-02-27T13:56:52.410Z,102719.16
2023-02-27T14:22:55.109Z,102726.31
2023-02-27T14:43:23.961Z,102736.75
2023-02-27T14:47:52.763Z,102746.13
2023-02-27T14:52:21.560Z,102748.56
2023-02-27T14:56:41.130Z,102748.58
2023-02-27T15:09:44.905Z,102747.01
2023-02-27T15:39:49.360Z,102768.68
2023-02-27T15:43:55.148Z,102773.56
2023-02-27T15:48:18.150Z,102771.59
2023-02-27T15:52:14.190Z,102775.77
2023-02-27T15:56:31.987Z,102776.27
2023-02-27T16:01:02.207Z,102780.64
2023-02-27T16:05:21.615Z,102774.64
2023-02-27T16:20:30.396Z,102786.95
2023-02-27T16:24:59.250Z,102790.91
2023-02-27T16:29:31.759Z,102801.02
2023-02-27T16:33:54.785Z,102802.17
2023-02-27T17:03:41.921Z,102822.74
2023-02-27T17:08:11.167Z,102826.86
2023-02-27T17:37:56.058Z,102856.23
2023-02-27T17:42:12.490Z,102861.91
2023-02-27T17:46:29.948Z,102871.77
2023-02-27T17:51:04.336Z,102870.00
2023-02-27T18:12:32.922Z,102890.84
2023-02-27T18:17:02.307Z,102898.49
2023-02-27T18:21:43.670Z,102901.66
2023-02-27T18:43:10.619Z,102905.81
2023-02-27T18:47:02.850Z,102907.52
2023-02-27T18:55:12.085Z,102907.15
2023-02-27T18:59:41.606Z,102906.42
2023-02-27T19:04:04.933Z,102911.13
2023-02-27T19:29:06.770Z,102931.76
2023-02-27T19:33:34.299Z,102937.45
2023-02-27T19:37:48.345Z,102935.17
2023-02-27T19:42:17.352Z,102941.95
2023-02-27T19:46:41.161Z,102942.44
2023-02-27T20:28:57.020Z,102953.82
2023-02-27T20:33:19.132Z,102956.25
2023-02-27T20:37:47.204Z,102956.08
2023-02-27T20:42:19.432Z,102956.06
2023-02-27T20:46:49.592Z,102955.53
2023-02-27T20:51:10.193Z,102964.18
2023-02-27T21:12:57.634Z,102966.39
2023-02-27T21:17:27.382Z,102966.58
2023-02-27T21:39:03.357Z,102974.98
2023-02-27T21:43:33.405Z,102975.29
2023-02-27T21:48:02.912Z,102975.23
2023-02-27T21:52:33.492Z,102975.58
2023-02-27T22:16:38.346Z,102988.21
2023-02-27T22:21:08.852Z,102990.50
2023-02-27T22:47:15.008Z,102989.20
2023-02-27T22:51:40.402Z,102991.13
2023-02-27T22:56:09.864Z,102993.56
2023-02-27T23:00:38.582Z,102989.30
2023-02-27T23:05:06.291Z,102995.48
2023-02-27T23:13:30.981Z,102993.29
2023-02-27T23:17:57.897Z,102996.80
2023-02-27T23:22:31.282Z,103006.23
2023-02-27T23:43:51.039Z,103014.34
2023-02-27T23:48:12.668Z,103014.54
